• Join FlightAware (Why Join?)
  • Login
  • US Flag 
11:56AM EST


 

Airport Tracker/Info


-or-


 

Live Flight TrackerFlight Track Log ✈ AWE1710 ✈ 10-Jun-2013 ✈ KCLT - KMCO

Flight Track Log - Related Links

Times and Time Zones

All times are in EDT time to prevent confusion due to time zone crossing. See the AWE1710 flight status page for this flight to view local times or setup timezone preferences in your user account.

Time Position Orientation Groundspeed Altitude Reporting Facility
EDT Latitude Longitude Course Direction KTS MPH feet Rate Location/Type
01:29PM 35.1950 -80.9356 193° South 161 185 1,500  Level Atlanta Center
01:30PM 35.1364 -80.9300 176° South 190 219 3,300 1,740 Climbing Atlanta Center
01:31PM 35.0778 -80.9172 170° South 248 285 5,100 1,920 Climbing Atlanta Center
01:31PM 35.0525 -80.9156 177° South 261 300 5,800 2,040 Climbing Atlanta Center
01:32PM 34.6749 -80.9797 180° South  Level Estimated
01:32PM 34.9836 -80.9053 173° South 273 314 8,000  Level Atlanta Center
01:33PM 34.5402 -80.9873 165° South  Level Estimated
01:33PM 34.9128 -80.9156 187° South 260 299 10,000  Level Atlanta Center
01:34PM 34.4055 -80.9949 193° South  Level Estimated
01:34PM 34.8383 -80.9411 196° South 272 313 12,000  Level Atlanta Center
01:36PM 34.6936 -80.9483 182° South 279 321 15,500 1,800 Climbing Jacksonville Center
01:37PM 34.6136 -80.9097 158° South 302 348 17,100 1,500 Climbing Jacksonville Center
01:38PM 34.5294 -80.8664 157° South 318 366 18,600 1,200 Climbing Jacksonville Center
01:39PM 34.4517 -80.8278 158° South 325 374 19,500 1,020 Climbing Jacksonville Center
01:40PM 34.3600 -80.8375 185° South 334 384 20,700 1,080 Climbing Jacksonville Center
01:41PM 34.2839 -80.8997 214° Southwest 315 362 21,700 1,080 Climbing Jacksonville Center
01:42PM 34.2011 -80.9467 205° Southwest 325 374 22,900 1,080 Climbing Jacksonville Center
01:43PM 34.1078 -80.9864 199° South 347 399 23,900 900 Climbing Jacksonville Center
01:44PM 34.0058 -80.9961 185° South 368 423 24,800 780 Climbing Jacksonville Center
01:45PM 33.9050 -80.9483 159° South 367 422 25,500 600 Climbing Jacksonville Center
01:46PM 33.7922 -80.9408 177° South 380 437 26,000 240 Climbing Jacksonville Center
01:47PM 33.6797 -80.9533 185° South 398 458 26,000  Level Jacksonville Center
01:48PM 33.5631 -80.9783 190° South 415 478 26,000  Level Jacksonville Center
01:49PM 33.4578 -81.0428 207° Southwest 421 484 26,000  Level Jacksonville Center
01:50PM 33.3392 -81.0750 193° South 428 493 26,000  Level Jacksonville Center
01:51PM 33.2203 -81.0800 182° South 428 493 26,000 -60 Level Jacksonville Center
01:52PM 33.1014 -81.0872 183° South 428 493 25,900 -60 Descending Jacksonville Center
01:53PM 32.9783 -81.0922 182° South 434 499 25,900  Level Jacksonville Center
01:54PM 32.8553 -81.0997 183° South 434 499 25,900  Level Jacksonville Center
01:55PM 32.7364 -81.1044 182° South 439 505 26,000  Climbing Jacksonville Center
01:56PM 32.6050 -81.1144 184° South 439 505 26,000  Level Jacksonville Center
01:57PM 32.4797 -81.1194 182° South 446 513 26,000  Level Jacksonville Center
01:58PM 32.3650 -81.1242 182° South 446 513 26,000  Level Jacksonville Center
01:59PM 32.2419 -81.1289 182° South 446 513 26,000 -60 Level Jacksonville Center
02:00PM 32.1189 -81.1364 183° South 451 519 25,900 -60 Descending Jacksonville Center
02:01PM 31.9978 -81.1411 182° South 446 513 25,900  Level Jacksonville Center
02:02PM 31.8600 -81.1461 182° South 440 506 26,000  Climbing Jacksonville Center
02:03PM 31.7369 -81.1533 183° South 440 506 26,000  Level Jacksonville Center
02:04PM 31.6264 -81.1578 182° South 440 506 26,000  Level Jacksonville Center
02:05PM 31.4931 -81.1653 183° South 440 506 26,000  Level Jacksonville Center
02:06PM 31.3803 -81.1697 182° South 445 512 26,000  Level Jacksonville Center
02:07PM 31.2425 -81.1722 181° South 445 512 26,000  Level Jacksonville Center
02:08PM 31.1192 -81.1697 179° South 439 505 26,000  Level Jacksonville Center
02:09PM 30.9961 -81.1669 179° South 439 505 26,000  Level Jacksonville Center
02:10PM 30.8706 -81.1597 177° South 439 505 26,000  Level Jacksonville Center
02:11PM 30.7475 -81.1594 180° South 439 505 26,000  Level Jacksonville Center
02:12PM 30.6200 -81.1544 178° South 444 511 26,000  Level Jacksonville Center
02:13PM 30.4989 -81.1494 178° South 444 511 26,000  Level Jacksonville Center
02:14PM 30.3714 -81.1469 179° South 444 511 26,000  Level Jacksonville Center
02:15PM 30.2461 -81.1422 178° South 449 517 26,000  Level Jacksonville Center
02:16PM 30.1375 -81.1417 180° South 455 524 26,000  Level Jacksonville Center
02:17PM 30.0122 -81.1344 177° South 455 524 26,000  Level Jacksonville Center
02:18PM 29.8847 -81.1319 179° South 455 524 26,000 -1,020 Level Jacksonville Center
02:19PM 29.7617 -81.1294 179° South 455 524 24,000 -2,100 Descending Jacksonville Center
02:20PM 29.6447 -81.1267 179° South 440 506 21,900 -2,100 Descending Jacksonville Center
02:21PM 29.5319 -81.1214 178° South 424 488 19,800 -2,040 Descending Jacksonville Center
02:22PM 29.4256 -81.1211 180° South 408 470 17,900 -1,800 Descending Jacksonville Center
02:23PM 29.3189 -81.1158 178° South 388 447 16,200 -1,680 Descending Jacksonville Center
02:24PM 29.2186 -81.1175 181° South 376 433 14,600 -1,500 Descending Jacksonville Center
02:25PM 29.1186 -81.1242 183° South 366 421 13,200 -1,020 Descending Jacksonville Center
02:26PM 29.0311 -81.1375 188° South 344 396 12,600 -720 Descending Jacksonville Center
02:27PM 28.9478 -81.1533 189° South 322 371 11,800 -1,200 Descending Jacksonville Center
02:28PM 28.8708 -81.1761 195° South 303 349 10,300 -1,500 Descending Jacksonville Center
02:29PM 28.7983 -81.2033 198° South 289 333 8,900 -1,200 Descending Jacksonville Center
02:30PM 28.7511 -81.2633 228° Southwest 262 302 8,000 -1,380 Descending Jacksonville Center
02:31PM 28.7100 -81.3161 228° Southwest 248 285 6,200 -1,740 Descending Jacksonville Center
02:32PM 28.6517 -81.3336 195° South 228 262 4,600 -1,620 Descending Jacksonville Center